GMFK Airport Information

Runway Information
Runway 13 Length 10499 ft width 148 ft
Elevation 3428 ft Threshold 0 ft Heading 125
Runway 31 Length 10499 ft Width 148 ft
Elevation 3363 ft Threshold 0 ft Heading 305
Airport Frequencies
Type TWR Name ERRACHIDIA Frequency 122.7 MHZ
Airport Navaids
Type VOR-DME Name Errachidia Frequency 117100 KHZ
Type NDB Name Errachidia Frequency 293 KHZ
Airport Weather Information & NOTAM
ADDS - METARS form results

(2300 UTC 16 October 2018)
Data provider http://aviationweather.gov/metar/data/
 
METAR text: GMFK 162244Z 19005KT CAVOK 20/02 Q1016 NOSIG M1
Conditions at: GMFK (ER-RACHIDIA (RMA, MA) observed 2244 UTC 16 October 2018
Temperature: 20.0°C (68°F)
Dewpoint: 2.0°C (36°F) [RH = 30%]
Pressure (altimeter): 30.00 inches Hg (1016.0 mb)
Winds: from the S (190 degrees) at 6 MPH (5 knots; 2.6 m/s)
Visibility: 6 or more miles (10+ km)
Ceiling: ceiling and visibility are OK
Clouds: unknown
Weather: no significant weather observed at this time